Time;durP1;ratioP1;P1;durP2;ratioP2;P2;SDS_P1;SDS_P2;PMS_P1;PMS_P2;Temp;Humidity;BMP_temperature;BMP_pressure;BME280_temperature;BME280_humidity;BME280_pressure;Samples;Min_cycle;Max_cycle;Signal;HPM_P1;HPM_P2
2022/10/25 00:02:20;;;;;;;9.70;1.90;;;13.90;99.90;;;-144.05;80.61;125687.94;4995434;28;20026;-84
2022/10/25 00:04:46;;;;;;;13.63;2.70;;;13.90;99.90;;;-144.05;81.41;125687.94;4994911;28;20037;-85
2022/10/25 00:07:13;;;;;;;11.00;2.20;;;14.00;99.90;;;-144.05;80.42;125687.94;4994893;28;20076;-81
2022/10/25 00:09:40;;;;;;;7.55;2.20;;;14.00;99.90;;;-144.05;80.26;125687.94;4994875;28;20026;-85
2022/10/25 00:12:07;;;;;;;8.73;2.20;;;14.00;99.90;;;-144.05;79.92;125687.94;5012774;28;20030;-86
2022/10/25 00:14:34;;;;;;;9.02;1.92;;;14.00;99.90;;;-144.05;79.81;125687.94;5012375;28;20034;-85
2022/10/25 00:17:00;;;;;;;10.95;2.00;;;14.10;99.90;;;-144.05;79.27;125687.94;4998726;28;20033;-83
2022/10/25 00:19:26;;;;;;;7.60;1.70;;;14.10;99.90;;;-144.05;79.50;125687.94;5000961;28;20033;-84
2022/10/25 00:21:52;;;;;;;11.02;2.28;;;14.10;99.90;;;-144.05;79.13;125687.94;5001160;28;20022;-86
2022/10/25 00:24:18;;;;;;;8.32;2.00;;;14.10;99.90;;;-144.05;78.70;125687.94;5001115;28;20224;-85
2022/10/25 00:26:44;;;;;;;13.60;1.90;;;14.20;99.90;;;-144.05;78.27;125687.94;5001559;28;20034;-84
2022/10/25 00:29:10;;;;;;;7.68;1.98;;;14.20;99.90;;;-144.05;78.57;125687.94;5001245;28;20030;-85
2022/10/25 00:31:37;;;;;;;10.20;2.58;;;14.10;99.90;;;-144.05;78.21;125687.94;5001181;28;20422;-84
2022/10/25 00:34:04;;;;;;;11.07;2.30;;;14.10;99.90;;;-144.05;78.86;125687.94;5001015;28;20068;-81
2022/10/25 00:36:30;;;;;;;9.38;2.03;;;14.10;99.90;;;-144.05;78.61;125687.94;5001224;28;20030;-81
2022/10/25 00:38:58;;;;;;;8.82;2.05;;;14.20;99.90;;;-144.05;78.29;125687.94;5000676;28;20394;-83
2022/10/25 00:41:30;;;;;;;12.45;3.03;;;14.20;99.90;;;-144.05;78.52;125687.94;5018633;28;20076;-83
2022/10/25 00:44:35;;;;;;;9.70;1.90;;;14.20;99.90;;;-144.05;78.17;125687.94;5001514;28;20069;-85
2022/10/25 00:47:19;;;;;;;10.00;1.65;;;14.20;99.90;;;-144.05;78.30;125687.94;5001054;28;20034;-84
2022/10/25 00:50:40;;;;;;;6.15;1.60;;;14.20;99.90;;;-144.05;77.73;125687.94;5000898;28;20401;-86
2022/10/25 00:53:31;;;;;;;8.80;1.70;;;14.20;99.90;;;-144.05;77.61;125687.94;5001136;28;20053;-85
2022/10/25 00:56:20;;;;;;;9.30;1.75;;;14.20;99.90;;;-144.05;77.64;125687.94;5018416;28;20026;-83
2022/10/25 00:58:57;;;;;;;10.13;1.85;;;14.20;99.90;;;-144.05;77.41;125687.94;5018037;28;20056;-84
2022/10/25 01:01:24;;;;;;;8.00;1.83;;;14.20;99.90;;;-144.05;77.33;125687.94;5000946;28;20095;-85
2022/10/25 01:03:56;;;;;;;10.68;2.00;;;14.30;99.90;;;-144.05;77.90;125687.94;5001251;28;20116;-84
2022/10/25 01:06:40;;;;;;;9.10;1.58;;;14.30;99.90;;;-144.05;77.57;125687.94;5001283;28;20116;-84
2022/10/25 01:09:13;;;;;;;11.18;1.70;;;14.30;99.90;;;-144.05;77.23;125687.94;5001670;28;20058;-85
2022/10/25 01:11:39;;;;;;;6.50;1.75;;;14.30;99.90;;;-144.05;77.01;125687.94;5018147;28;20120;-83
2022/10/25 01:14:11;;;;;;;10.63;2.03;;;14.30;99.90;;;-144.05;77.13;125687.94;5000516;28;20121;-83
2022/10/25 01:17:10;;;;;;;11.80;1.80;;;14.30;99.90;;;-144.05;76.53;125687.94;5000464;28;20026;-85
2022/10/25 01:20:00;;;;;;;6.85;1.77;;;14.30;99.90;;;-144.05;75.74;125687.94;5001301;28;20490;-87
2022/10/25 01:23:09;;;;;;;8.98;1.92;;;14.40;99.90;;;-144.05;76.49;125687.94;5019286;28;20045;-80
2022/10/25 01:26:30;;;;;;;6.82;1.65;;;14.40;99.90;;;-144.05;76.53;125687.94;5006554;28;20129;-84
2022/10/25 01:29:47;;;;;;;11.05;1.75;;;14.30;99.90;;;-144.05;76.49;125687.94;4996841;28;20026;-85
2022/10/25 01:32:49;;;;;;;11.37;1.60;;;14.40;99.90;;;-144.05;76.36;125687.94;4997257;28;20037;-84
2022/10/25 01:35:30;;;;;;;6.78;1.58;;;14.30;99.90;;;-144.05;76.64;125687.94;5014960;28;20272;-80
2022/10/25 01:38:27;;;;;;;7.57;1.70;;;14.20;99.90;;;-144.05;76.88;125687.94;4997409;28;20478;-85
2022/10/25 01:41:48;;;;;;;6.72;1.38;;;14.20;99.90;;;-144.05;77.30;125687.94;4997480;28;20121;-83
2022/10/25 01:45:14;;;;;;;7.95;2.17;;;14.20;99.90;;;-144.05;76.55;125687.94;5007333;28;20125;-85
2022/10/25 01:47:54;;;;;;;7.18;1.67;;;14.30;99.90;;;-144.05;76.29;125687.94;4997048;28;20067;-83
2022/10/25 01:50:27;;;;;;;9.52;1.67;;;14.30;99.90;;;-144.05;76.30;125687.94;4997000;28;20163;-84
2022/10/25 01:52:53;;;;;;;8.73;1.80;;;14.30;99.90;;;-144.05;76.28;125687.94;4996889;28;20032;-85
2022/10/25 01:55:32;;;;;;;6.72;1.40;;;14.30;99.90;;;-144.05;76.14;125687.94;5014419;28;20026;-82
2022/10/25 01:58:32;;;;;;;12.27;1.92;;;14.30;99.90;;;-144.05;76.32;125687.94;5013129;28;20481;-85
2022/10/25 02:01:21;;;;;;;10.07;2.00;;;14.30;99.90;;;-144.05;76.29;125687.94;4996819;28;20026;-82
2022/10/25 02:04:29;;;;;;;7.68;1.63;;;14.30;99.90;;;-144.05;76.33;125687.94;4996684;28;20061;-84
2022/10/25 02:07:14;;;;;;;7.25;1.58;;;14.30;99.90;;;-144.05;76.15;125687.94;4996626;28;20034;-87
2022/10/25 02:10:19;;;;;;;17.65;2.17;;;14.20;99.90;;;-144.05;76.34;125687.94;4996538;28;20324;-83
2022/10/25 02:13:00;;;;;;;8.70;1.52;;;14.30;99.90;;;-144.05;76.30;125687.94;4996851;28;20449;-84
2022/10/25 02:15:47;;;;;;;11.60;1.80;;;14.20;99.90;;;-144.05;76.56;125687.94;4996713;28;20033;-84
2022/10/25 02:18:27;;;;;;;5.80;1.27;;;14.20;99.90;;;-144.05;76.09;125687.94;4996811;28;20030;-84
2022/10/25 02:20:55;;;;;;;10.82;2.05;;;14.20;99.90;;;-144.05;75.88;125687.94;4996693;28;20136;-88
2022/10/25 02:23:25;;;;;;;9.85;1.60;;;14.20;99.90;;;-144.05;75.63;125687.94;4996562;28;20416;-86
2022/10/25 02:25:53;;;;;;;8.23;1.73;;;14.20;99.90;;;-144.05;76.02;125687.94;5001280;28;20053;-84
2022/10/25 02:28:27;;;;;;;10.48;1.90;;;14.20;99.90;;;-144.05;76.14;125687.94;5001919;28;20029;-85
2022/10/25 02:30:57;;;;;;;7.93;1.52;;;14.20;99.90;;;-144.05;75.30;125687.94;5000928;28;20030;-84
2022/10/25 02:33:24;;;;;;;7.47;1.40;;;14.20;99.90;;;-144.05;75.59;125687.94;5001449;28;20122;-83
2022/10/25 02:36:22;;;;;;;4.78;1.08;;;14.30;99.90;;;-144.05;75.76;125687.94;4998446;28;20029;-83
2022/10/25 02:38:51;;;;;;;6.57;1.70;;;14.20;99.90;;;-144.05;75.81;125687.94;4998462;28;20083;-87
2022/10/25 02:41:20;;;;;;;5.88;1.80;;;14.30;99.90;;;-144.05;75.33;125687.94;4998358;28;20388;-84
2022/10/25 02:43:46;;;;;;;8.85;2.15;;;14.30;99.90;;;-144.05;75.43;125687.94;4998804;28;20061;-82
2022/10/25 02:46:17;;;;;;;8.75;1.48;;;14.30;99.90;;;-144.05;75.09;125687.94;4998733;28;20079;-85
2022/10/25 02:48:44;;;;;;;5.57;1.33;;;14.20;99.90;;;-144.05;76.54;125687.94;5016516;28;20061;-84
2022/10/25 02:51:12;;;;;;;8.68;1.48;;;14.10;99.90;;;-144.05;76.25;125687.94;4998724;28;20029;-85
2022/10/25 02:53:39;;;;;;;8.18;1.52;;;14.20;99.90;;;-144.05;75.97;125687.94;4998536;28;20105;-86
2022/10/25 02:56:18;;;;;;;10.80;1.95;;;14.20;99.90;;;-144.05;75.57;125687.94;4998741;28;20065;-82
2022/10/25 02:58:48;;;;;;;8.10;1.67;;;14.20;99.90;;;-144.05;75.80;125687.94;5015441;28;20044;-86
2022/10/25 03:01:18;;;;;;;7.32;2.15;;;14.10;99.90;;;-144.05;75.85;125687.94;4997826;28;20041;-84
2022/10/25 03:03:45;;;;;;;6.57;1.75;;;14.20;99.90;;;-144.05;75.84;125687.94;4998242;28;20165;-87
2022/10/25 03:06:13;;;;;;;7.63;1.80;;;14.10;99.90;;;-144.05;75.90;125687.94;4998001;28;20033;-86
2022/10/25 03:08:42;;;;;;;5.28;1.40;;;14.10;99.90;;;-144.05;75.73;125687.94;4998011;28;20033;-86
2022/10/25 03:11:11;;;;;;;8.27;1.48;;;14.10;99.90;;;-144.05;76.14;125687.94;4997918;28;20058;-86
2022/10/25 03:13:37;;;;;;;9.50;1.95;;;14.10;99.90;;;-144.05;75.97;125687.94;4997948;28;20030;-86
2022/10/25 03:16:04;;;;;;;9.60;1.70;;;14.10;99.90;;;-144.05;76.03;125687.94;4998110;28;20033;-85
2022/10/25 03:18:30;;;;;;;11.73;1.98;;;14.10;99.90;;;-144.05;75.87;125687.94;4997935;28;20033;-87
2022/10/25 03:21:02;;;;;;;10.13;1.90;;;14.20;99.90;;;-144.05;75.88;125687.94;4998351;28;20486;-86
2022/10/25 03:23:29;;;;;;;9.95;1.75;;;14.20;99.90;;;-144.05;76.12;125687.94;4997913;28;20030;-85
2022/10/25 03:25:59;;;;;;;7.07;1.80;;;14.10;99.90;;;-144.05;75.65;125687.94;4997234;28;20506;-86
2022/10/25 03:28:28;;;;;;;11.02;1.70;;;14.20;99.90;;;-144.05;75.88;125687.94;5006225;28;20113;-77
2022/10/25 03:30:57;;;;;;;7.88;1.92;;;14.20;99.90;;;-144.05;75.60;125687.94;5019190;28;20045;-86
2022/10/25 03:33:24;;;;;;;8.80;2.00;;;14.20;99.90;;;-144.05;75.89;125687.94;5002212;28;20097;-83
2022/10/25 03:35:52;;;;;;;12.65;1.65;;;14.20;99.90;;;-144.05;75.75;125687.94;4998833;28;20036;-85
2022/10/25 03:38:18;;;;;;;9.65;2.08;;;14.10;99.90;;;-144.05;75.89;125687.94;4997452;28;20033;-86
2022/10/25 03:40:44;;;;;;;11.45;2.55;;;14.10;99.90;;;-144.05;76.24;125687.94;4996998;28;20137;-85
2022/10/25 03:43:11;;;;;;;5.68;1.70;;;14.20;99.90;;;-144.05;75.82;125687.94;4998382;28;20034;-84
2022/10/25 03:45:37;;;;;;;7.63;1.58;;;14.10;99.90;;;-144.05;76.44;125687.94;4997773;28;20029;-85
2022/10/25 03:48:03;;;;;;;8.82;1.67;;;14.20;99.90;;;-144.05;76.27;125687.94;4997688;28;20532;-84
2022/10/25 03:50:29;;;;;;;7.15;1.70;;;14.10;99.90;;;-144.05;76.28;125687.94;4999772;28;20091;-83
2022/10/25 03:52:55;;;;;;;5.60;1.20;;;14.10;99.90;;;-144.05;76.04;125687.94;4999485;28;20026;-83
2022/10/25 03:55:21;;;;;;;9.63;1.83;;;14.10;99.90;;;-144.05;77.01;125687.94;4999020;28;20030;-85
2022/10/25 03:57:46;;;;;;;8.88;1.38;;;14.10;99.90;;;-144.05;77.33;125687.94;4997697;28;20457;-81
2022/10/25 04:00:13;;;;;;;8.65;1.55;;;14.20;99.90;;;-144.05;77.60;125687.94;5015592;28;20029;-85
2022/10/25 04:02:39;;;;;;;9.52;1.55;;;14.10;99.90;;;-144.05;77.90;125687.94;4997436;28;20064;-85
2022/10/25 04:05:06;;;;;;;5.32;1.30;;;14.00;99.90;;;-144.05;77.91;125687.94;4997297;28;20030;-84
2022/10/25 04:07:32;;;;;;;7.03;1.95;;;14.00;99.90;;;-144.05;78.81;125687.94;4997043;28;20037;-85
2022/10/25 04:09:57;;;;;;;9.25;1.63;;;14.00;99.90;;;-144.05;79.47;125687.94;5013011;28;20038;-85
2022/10/25 04:12:23;;;;;;;6.90;1.48;;;13.90;99.90;;;-144.05;79.38;125687.94;4995181;28;20025;-85
2022/10/25 04:14:49;;;;;;;8.20;1.42;;;13.90;99.90;;;-144.05;78.65;125687.94;5012557;28;20080;-83
2022/10/25 04:17:16;;;;;;;8.65;1.60;;;13.80;99.90;;;-144.05;78.83;125687.94;4995076;28;20034;-84
2022/10/25 04:19:41;;;;;;;11.13;2.53;;;13.80;99.90;;;-144.05;79.33;125687.94;4994823;28;20442;-84
2022/10/25 04:22:11;;;;;;;7.07;1.80;;;13.70;99.90;;;-144.05;79.75;125687.94;5012552;28;20088;-83
2022/10/25 04:24:37;;;;;;;5.72;1.70;;;13.60;99.90;;;-144.05;79.92;125687.94;4994786;28;20038;-83
2022/10/25 04:27:03;;;;;;;7.07;2.08;;;13.70;99.90;;;-144.05;79.32;125687.94;5012378;28;20114;-80
2022/10/25 04:29:29;;;;;;;9.15;2.00;;;13.60;99.90;;;-144.05;79.49;125687.94;4994301;28;20121;-84
2022/10/25 04:31:55;;;;;;;11.02;1.90;;;13.60;99.90;;;-144.05;79.74;125687.94;4994617;28;20026;-85
2022/10/25 04:34:21;;;;;;;9.25;1.90;;;13.60;99.90;;;-144.05;79.84;125687.94;4994704;28;20056;-84
2022/10/25 04:36:47;;;;;;;6.93;1.90;;;13.60;99.90;;;-144.05;80.30;125687.94;5012278;28;20033;-85
2022/10/25 04:39:12;;;;;;;6.60;1.33;;;13.70;99.90;;;-144.05;80.20;125687.94;4994998;28;20049;-83
2022/10/25 04:41:38;;;;;;;9.68;1.98;;;13.70;99.90;;;-144.05;79.39;125687.94;4994627;28;20033;-84
2022/10/25 04:44:04;;;;;;;8.85;2.25;;;13.60;99.90;;;-144.05;79.49;125687.94;4994629;28;20048;-83
2022/10/25 04:46:30;;;;;;;6.40;1.65;;;13.60;99.90;;;-144.05;79.17;125687.94;4994890;28;20030;-82
2022/10/25 04:48:56;;;;;;;8.20;2.08;;;13.70;99.90;;;-144.05;79.42;125687.94;4994990;28;20030;-83
2022/10/25 04:51:22;;;;;;;14.20;2.22;;;13.80;99.90;;;-144.05;79.34;125687.94;4994881;28;20121;-83
2022/10/25 04:53:48;;;;;;;7.70;1.77;;;13.80;99.90;;;-144.05;78.98;125687.94;4995398;28;20026;-85
2022/10/25 04:56:14;;;;;;;10.07;2.40;;;13.80;99.90;;;-144.05;79.07;125687.94;4995369;28;20053;-85
2022/10/25 04:58:40;;;;;;;9.85;1.55;;;13.80;99.90;;;-144.05;78.44;125687.94;4995098;28;20108;-85
2022/10/25 05:01:12;;;;;;;10.10;1.90;;;13.80;99.90;;;-144.05;78.67;125687.94;4995420;28;20288;-88
2022/10/25 05:03:39;;;;;;;9.15;1.70;;;13.90;99.90;;;-144.05;78.65;125687.94;4998199;28;20037;-83
2022/10/25 05:06:15;;;;;;;11.55;2.22;;;13.80;99.90;;;-144.05;78.50;125687.94;5016806;28;20053;-84
2022/10/25 05:08:46;;;;;;;8.77;1.95;;;13.80;99.90;;;-144.05;78.26;125687.94;4998535;28;20548;-84
2022/10/25 05:11:17;;;;;;;13.40;2.15;;;13.80;99.90;;;-144.05;78.35;125687.94;5016479;28;20030;-86
2022/10/25 05:13:45;;;;;;;8.40;1.90;;;13.80;99.90;;;-144.05;78.40;125687.94;4998743;28;20056;-83
2022/10/25 05:16:22;;;;;;;9.85;2.13;;;13.80;99.90;;;-144.05;78.33;125687.94;4998504;28;20212;-83
2022/10/25 05:18:53;;;;;;;7.38;2.10;;;13.80;99.90;;;-144.05;78.19;125687.94;4999632;28;20109;-85
2022/10/25 05:21:23;;;;;;;9.50;2.08;;;13.90;99.90;;;-144.05;78.29;125687.94;5016752;28;20053;-85
2022/10/25 05:23:49;;;;;;;12.52;1.80;;;13.80;99.90;;;-144.05;78.21;125687.94;4998596;28;20053;-84
2022/10/25 05:26:20;;;;;;;10.75;1.92;;;13.90;99.90;;;-144.05;78.01;125687.94;4999107;28;20037;-83
2022/10/25 05:28:50;;;;;;;9.68;2.40;;;13.90;99.90;;;-144.05;77.84;125687.94;5016396;28;20086;-84
2022/10/25 05:31:27;;;;;;;8.30;1.85;;;13.90;99.90;;;-144.05;77.33;125687.94;4998249;28;20056;-83
2022/10/25 05:33:58;;;;;;;9.75;2.30;;;13.90;99.90;;;-144.05;77.99;125687.94;4999426;28;20026;-86
2022/10/25 05:36:27;;;;;;;6.40;1.63;;;13.90;99.90;;;-144.05;77.99;125687.94;5019841;28;20106;-83
2022/10/25 05:38:53;;;;;;;10.88;2.05;;;13.90;99.90;;;-144.05;78.13;125687.94;5000637;28;20030;-84
2022/10/25 05:41:19;;;;;;;13.13;2.42;;;13.70;99.90;;;-144.05;77.96;125687.94;4997067;28;20026;-86
2022/10/25 05:43:46;;;;;;;8.90;1.73;;;13.70;99.90;;;-144.05;78.06;125687.94;4996985;28;20125;-84
2022/10/25 05:46:18;;;;;;;11.52;2.58;;;13.70;99.90;;;-144.05;78.38;125687.94;4996899;28;20026;-81
2022/10/25 05:48:45;;;;;;;7.65;2.00;;;13.70;99.90;;;-144.05;78.26;125687.94;4997507;28;20036;-83
2022/10/25 05:51:21;;;;;;;10.48;2.53;;;13.70;99.90;;;-144.05;78.66;125687.94;4997816;28;20030;-85
2022/10/25 05:53:52;;;;;;;6.32;2.15;;;13.70;99.90;;;-144.05;78.39;125687.94;4997280;28;20057;-85
2022/10/25 05:56:22;;;;;;;13.80;2.70;;;13.80;99.90;;;-144.05;78.00;125687.94;4996797;28;20022;-86
2022/10/25 05:58:49;;;;;;;10.50;2.10;;;13.80;99.90;;;-144.05;78.13;125687.94;4997048;28;20021;-84
2022/10/25 06:01:20;;;;;;;8.23;2.08;;;13.80;99.90;;;-144.05;78.07;125687.94;4996896;28;20030;-85
2022/10/25 06:03:53;;;;;;;9.50;2.33;;;13.80;99.90;;;-144.05;78.26;125687.94;4996915;28;20099;-83
2022/10/25 06:06:21;;;;;;;10.88;2.15;;;13.80;99.90;;;-144.05;77.69;125687.94;4996434;28;20049;-83
2022/10/25 06:08:47;;;;;;;11.73;2.05;;;13.80;99.90;;;-144.05;77.73;125687.94;4996863;28;20040;-85
2022/10/25 06:11:18;;;;;;;10.93;2.85;;;13.80;99.90;;;-144.05;77.34;125687.94;4996743;28;20509;-84
2022/10/25 06:13:45;;;;;;;9.57;2.30;;;13.80;99.90;;;-144.05;77.48;125687.94;4996080;28;20463;-84
2022/10/25 06:16:15;;;;;;;10.48;2.55;;;13.80;99.90;;;-144.05;77.39;125687.94;4996521;28;20520;-83
2022/10/25 06:18:42;;;;;;;6.05;2.30;;;13.90;99.90;;;-144.05;77.16;125687.94;4996695;28;20025;-84
2022/10/25 06:21:14;;;;;;;9.50;2.33;;;13.90;99.90;;;-144.05;77.41;125687.94;4996798;28;20129;-83
2022/10/25 06:23:42;;;;;;;12.13;2.40;;;13.90;99.90;;;-144.05;77.31;125687.94;4997052;28;20041;-84
2022/10/25 06:26:27;;;;;;;9.52;2.45;;;13.90;99.90;;;-144.05;76.94;125687.94;4996388;28;20053;-85
2022/10/25 06:29:03;;;;;;;7.68;2.28;;;13.80;99.90;;;-144.05;77.58;125687.94;4996337;28;20026;-84
2022/10/25 06:31:31;;;;;;;10.65;2.65;;;13.80;99.90;;;-144.05;77.14;125687.94;4996800;28;20401;-86
2022/10/25 06:34:02;;;;;;;9.32;3.45;;;13.80;99.90;;;-144.05;76.90;125687.94;4997092;28;20065;-83
2022/10/25 06:36:30;;;;;;;6.38;3.30;;;13.80;99.90;;;-144.05;76.99;125687.94;5014033;28;20473;-85
2022/10/25 06:38:56;;;;;;;9.98;3.58;;;13.90;99.90;;;-144.05;77.19;125687.94;5013923;28;20026;-86
2022/10/25 06:41:27;;;;;;;7.88;3.17;;;13.80;99.90;;;-144.05;76.73;125687.94;5012340;28;20022;-85
2022/10/25 06:43:54;;;;;;;7.50;3.15;;;13.80;99.90;;;-144.05;76.66;125687.94;4995915;28;20030;-85
2022/10/25 06:46:32;;;;;;;8.68;3.22;;;13.80;99.90;;;-144.05;77.22;125687.94;4996082;28;20547;-83
2022/10/25 06:49:04;;;;;;;11.05;3.13;;;13.80;99.90;;;-144.05;77.43;125687.94;4995838;28;20026;-85
2022/10/25 06:51:32;;;;;;;10.15;2.95;;;13.80;99.90;;;-144.05;77.79;125687.94;4995843;28;20029;-84
2022/10/25 06:54:03;;;;;;;10.50;2.58;;;13.80;99.90;;;-144.05;78.14;125687.94;4995956;28;20060;-82
2022/10/25 06:56:29;;;;;;;6.97;2.53;;;13.80;99.90;;;-144.05;78.47;125687.94;4995563;28;20117;-88
2022/10/25 06:58:55;;;;;;;10.68;3.08;;;13.80;99.90;;;-144.05;78.31;125687.94;4995868;28;20113;-85
2022/10/25 07:01:24;;;;;;;7.85;2.28;;;13.70;99.90;;;-144.05;78.45;125687.94;4995606;28;20033;-84
2022/10/25 07:03:53;;;;;;;9.38;2.65;;;13.70;99.90;;;-144.05;79.20;125687.94;4995783;28;20029;-84
2022/10/25 07:06:34;;;;;;;9.10;2.25;;;13.70;99.90;;;-144.05;79.00;125687.94;4995596;28;20033;-84
2022/10/25 07:09:01;;;;;;;6.68;2.10;;;13.70;99.90;;;-144.05;78.93;125687.94;4995868;28;20030;-84
2022/10/25 07:11:31;;;;;;;14.32;3.03;;;13.60;99.90;;;-144.05;79.18;125687.94;4995453;28;20061;-86
2022/10/25 07:14:01;;;;;;;10.05;2.78;;;13.60;99.90;;;-144.05;79.10;125687.94;4995628;28;20025;-84
2022/10/25 07:16:28;;;;;;;12.43;2.38;;;13.60;99.90;;;-144.05;79.11;125687.94;4995518;28;20148;-84
2022/10/25 07:19:03;;;;;;;8.15;2.42;;;13.60;99.90;;;-144.05;78.66;125687.94;4995515;28;20470;-85
2022/10/25 07:21:31;;;;;;;9.90;2.43;;;13.60;99.90;;;-144.05;78.17;125687.94;5013243;28;20041;-84
2022/10/25 07:23:57;;;;;;;11.68;2.35;;;13.80;99.90;;;-144.05;78.50;125687.94;4995877;28;20030;-84
2022/10/25 07:26:28;;;;;;;8.52;2.58;;;13.80;99.90;;;-144.05;78.45;125687.94;5012240;28;20079;-85
2022/10/25 07:28:57;;;;;;;11.23;3.25;;;13.80;99.90;;;-144.05;77.93;125687.94;4995403;28;20045;-84
2022/10/25 07:31:33;;;;;;;6.43;2.10;;;13.90;99.90;;;-144.05;77.79;125687.94;4995214;28;20402;-82
2022/10/25 07:34:03;;;;;;;10.68;1.95;;;14.00;99.90;;;-144.05;77.18;125687.94;4995492;28;20038;-85
2022/10/25 07:36:30;;;;;;;8.88;2.00;;;14.00;99.90;;;-144.05;76.60;125687.94;4995754;28;20026;-86
2022/10/25 07:38:56;;;;;;;10.10;1.70;;;14.00;99.90;;;-144.05;76.27;125687.94;5015725;28;20109;-81
2022/10/25 07:41:24;;;;;;;9.75;2.33;;;14.00;99.90;;;-144.05;76.22;125687.94;5005918;28;20041;-85
2022/10/25 07:43:50;;;;;;;8.55;2.25;;;14.10;99.90;;;-144.05;75.87;125687.94;4995345;28;20045;-82
2022/10/25 07:46:16;;;;;;;12.48;2.25;;;14.10;99.90;;;-144.05;75.89;125687.94;4995175;28;20527;-84
2022/10/25 07:48:41;;;;;;;7.10;2.05;;;14.20;99.90;;;-144.05;76.08;125687.94;5011586;28;20025;-85
2022/10/25 07:51:13;;;;;;;9.82;2.17;;;14.10;99.90;;;-144.05;76.35;125687.94;4995227;28;20030;-83
2022/10/25 07:53:39;;;;;;;8.07;1.83;;;14.20;99.90;;;-144.05;75.75;125687.94;4995336;28;20460;-84
2022/10/25 07:56:11;;;;;;;7.95;2.05;;;14.20;99.90;;;-144.05;75.45;125687.94;4994838;28;20048;-84
2022/10/25 07:58:37;;;;;;;9.23;2.00;;;14.30;99.90;;;-144.05;74.75;125687.94;5011221;28;20033;-85
2022/10/25 08:01:07;;;;;;;7.80;2.05;;;14.30;99.90;;;-144.05;74.80;125687.94;4994670;28;20026;-84
2022/10/25 08:03:34;;;;;;;7.72;2.08;;;14.40;99.90;;;-144.05;74.68;125687.94;4995175;28;20560;-86
2022/10/25 08:06:01;;;;;;;13.52;2.53;;;14.40;99.90;;;-144.05;74.15;125687.94;4994378;28;20049;-83
2022/10/25 08:08:29;;;;;;;6.50;1.67;;;14.40;99.90;;;-144.05;73.64;125687.94;4994615;28;20026;-85
2022/10/25 08:10:56;;;;;;;7.00;2.10;;;14.50;99.90;;;-144.05;73.65;125687.94;4994701;28;20080;-84
2022/10/25 08:13:22;;;;;;;6.32;1.80;;;14.60;99.90;;;-144.05;73.73;125687.94;4995423;28;20030;-87
2022/10/25 08:15:55;;;;;;;11.82;1.90;;;14.60;99.90;;;-144.05;72.81;125687.94;4995750;28;20144;-85
2022/10/25 08:18:23;;;;;;;7.40;2.13;;;14.70;99.90;;;-144.05;72.46;125687.94;4994896;28;20026;-84
2022/10/25 08:20:49;;;;;;;6.88;1.77;;;14.80;99.90;;;-144.05;72.78;125687.94;4994980;28;20033;-84
2022/10/25 08:23:15;;;;;;;7.68;1.65;;;14.90;99.90;;;-144.05;71.81;125687.94;4995010;28;20036;-84
2022/10/25 08:25:41;;;;;;;8.68;2.45;;;14.90;99.90;;;-144.05;72.46;125687.94;4994893;28;20113;-84
2022/10/25 08:28:08;;;;;;;9.70;2.25;;;15.00;99.90;;;-144.05;71.80;125687.94;4994574;28;20038;-84
2022/10/25 08:30:34;;;;;;;9.25;1.80;;;15.10;99.90;;;-144.05;71.30;125687.94;4994655;28;20034;-85
2022/10/25 08:33:00;;;;;;;7.07;2.00;;;15.20;99.90;;;-144.05;70.97;125687.94;4994656;28;20038;-85
2022/10/25 08:35:26;;;;;;;8.50;2.35;;;15.20;99.90;;;-144.05;70.49;125687.94;4994364;28;20033;-85
2022/10/25 08:37:52;;;;;;;6.22;1.77;;;15.30;99.90;;;-144.05;70.35;125687.94;4996616;28;20030;-85
2022/10/25 08:40:34;;;;;;;10.30;1.83;;;15.30;99.90;;;-144.05;69.96;125687.94;4998570;28;20335;-84
2022/10/25 08:44:10;;;;;;;4.72;1.85;;;15.30;99.90;;;-144.05;70.07;125687.94;4999118;28;20083;-82
2022/10/25 08:47:03;;;;;;;8.25;1.80;;;15.30;99.90;;;-144.05;69.03;125687.94;5010380;28;20084;-86
2022/10/25 08:50:00;;;;;;;7.97;2.28;;;15.70;99.90;;;-144.05;67.95;125687.94;4998642;28;20132;-83
2022/10/25 08:52:53;;;;;;;4.45;1.40;;;15.80;99.90;;;-144.05;66.73;125687.94;4998813;28;20120;-86
2022/10/25 08:55:33;;;;;;;8.73;1.85;;;15.90;99.90;;;-144.05;66.87;125687.94;4998287;28;20057;-81
2022/10/25 08:58:06;;;;;;;10.23;1.83;;;15.80;99.90;;;-144.05;68.18;125687.94;4998358;28;20037;-82
2022/10/25 09:00:39;;;;;;;5.95;1.58;;;15.60;99.90;;;-144.05;68.02;125687.94;4998314;28;20030;-85
2022/10/25 09:03:23;;;;;;;5.60;1.88;;;15.60;99.90;;;-144.05;68.17;125687.94;4998371;28;20021;-81
2022/10/25 09:06:16;;;;;;;5.70;1.65;;;15.60;99.90;;;-144.05;66.61;125687.94;4998196;28;20393;-82
2022/10/25 09:09:27;;;;;;;6.90;1.55;;;15.60;99.90;;;-144.05;67.20;125687.94;4998132;28;20026;-86
2022/10/25 09:12:33;;;;;;;3.92;1.50;;;15.60;99.90;;;-144.05;66.88;125687.94;4998165;28;20096;-82
2022/10/25 09:16:02;;;;;;;4.97;1.52;;;15.70;99.90;;;-144.05;66.62;125687.94;4997965;28;20026;-86
2022/10/25 09:18:56;;;;;;;9.85;1.85;;;15.70;99.90;;;-144.05;66.65;125687.94;4965619;28;20045;-85
2022/10/25 09:21:58;;;;;;;8.93;1.65;;;15.60;99.90;;;-144.05;66.51;125687.94;4997918;28;20036;-85
2022/10/25 09:24:35;;;;;;;7.20;1.58;;;15.60;99.90;;;-144.05;66.99;125687.94;4997887;28;20462;-84
2022/10/25 09:27:24;;;;;;;8.85;2.10;;;15.50;99.90;;;-144.05;66.92;125687.94;4997683;28;20427;-84
2022/10/25 09:30:08;;;;;;;4.55;1.48;;;15.50;99.90;;;-144.05;66.90;125687.94;4999995;28;20033;-82
2022/10/25 09:32:44;;;;;;;8.13;1.65;;;15.50;99.90;;;-144.05;67.15;125687.94;5000860;28;20478;-82
2022/10/25 09:35:38;;;;;;;3.70;1.55;;;15.30;99.90;;;-144.05;67.69;125687.94;4998309;28;20052;-86
2022/10/25 09:38:20;;;;;;;5.05;1.40;;;15.20;99.90;;;-144.05;67.69;125687.94;5005212;28;20034;-83
2022/10/25 09:41:25;;;;;;;8.38;1.55;;;15.20;99.90;;;-144.05;67.20;125687.94;5021705;28;20033;-78
2022/10/25 09:44:25;;;;;;;10.65;1.90;;;15.20;99.90;;;-144.05;67.66;125687.94;4991932;28;20042;-83
2022/10/25 09:47:21;;;;;;;9.18;1.60;;;15.20;99.90;;;-144.05;68.10;125687.94;4998056;28;20037;-84
2022/10/25 09:50:03;;;;;;;4.00;1.45;;;15.10;99.90;;;-144.05;68.27;125687.94;4996279;28;20066;-84
2022/10/25 09:53:12;;;;;;;6.82;1.90;;;15.10;99.90;;;-144.05;68.18;125687.94;4997654;28;20501;-85
2022/10/25 09:55:53;;;;;;;9.45;1.73;;;15.20;99.90;;;-144.05;67.94;125687.94;4997455;28;20022;-85
2022/10/25 09:58:45;;;;;;;12.50;2.10;;;15.30;99.90;;;-144.05;67.11;125687.94;4998153;28;20061;-85
2022/10/25 10:01:23;;;;;;;6.60;1.50;;;15.40;99.90;;;-144.05;67.46;125687.94;4997758;28;20111;-84
2022/10/25 10:03:50;;;;;;;7.88;1.55;;;15.40;99.90;;;-144.05;67.31;125687.94;4997553;28;20038;-84
2022/10/25 10:06:33;;;;;;;6.03;1.40;;;15.60;99.90;;;-144.05;66.61;125687.94;4997862;28;20037;-88
2022/10/25 10:09:09;;;;;;;9.10;1.23;;;15.60;99.90;;;-144.05;66.21;125687.94;4998253;28;20033;-86
2022/10/25 10:11:35;;;;;;;6.50;1.70;;;15.70;99.90;;;-144.05;66.18;125687.94;4997177;28;20030;-87
2022/10/25 10:14:31;;;;;;;7.10;1.50;;;15.70;99.90;;;-144.05;66.35;125687.94;5013690;28;20030;-83
2022/10/25 10:16:59;;;;;;;8.02;1.55;;;15.70;99.90;;;-144.05;66.41;125687.94;5010217;28;20113;-85
2022/10/25 10:19:29;;;;;;;5.65;1.75;;;15.80;99.90;;;-144.05;65.87;125687.94;4997483;28;20098;-84
2022/10/25 10:22:01;;;;;;;7.90;1.42;;;15.80;99.90;;;-144.05;65.56;125687.94;4999797;28;20030;-86
2022/10/25 10:24:39;;;;;;;7.60;1.45;;;15.90;99.90;;;-144.05;64.35;125687.94;4996625;28;20394;-85
2022/10/25 10:27:28;;;;;;;7.28;1.60;;;16.10;99.90;;;-144.05;62.84;125687.94;4996947;28;20113;-82
2022/10/25 10:30:29;;;;;;;4.78;1.40;;;16.60;99.90;;;-144.05;62.40;125687.94;5014145;28;20030;-83